createdAt,value
2023-01-15T00:01:39.692Z,54.20
2023-01-15T00:04:41.029Z,54.20
2023-01-15T00:07:43.315Z,54.20
2023-01-15T00:10:44.598Z,54.10
2023-01-15T00:13:46.703Z,54.00
2023-01-15T00:16:50.345Z,54.60
2023-01-15T00:19:51.640Z,53.90
2023-01-15T00:22:53.001Z,54.10
2023-01-15T00:26:10.231Z,54.00
2023-01-15T00:29:13.256Z,53.80
2023-01-15T00:32:14.470Z,54.00
2023-01-15T00:35:16.810Z,54.10
2023-01-15T00:38:18.148Z,53.70
2023-01-15T00:41:19.697Z,53.90
2023-01-15T00:44:21.812Z,53.70
2023-01-15T00:47:23.219Z,54.00
2023-01-15T00:50:24.516Z,53.70
2023-01-15T00:53:25.808Z,53.90
2023-01-15T00:56:27.105Z,53.90
2023-01-15T00:59:29.235Z,53.90
2023-01-15T01:02:30.640Z,53.40
2023-01-15T01:05:32.047Z,53.80
2023-01-15T01:08:34.480Z,53.80
2023-01-15T01:11:36.588Z,53.70
2023-01-15T01:14:38.457Z,54.40
2023-01-15T01:17:39.740Z,53.90
2023-01-15T01:20:41.059Z,53.90
2023-01-15T01:23:42.380Z,53.90
2023-01-15T01:26:44.519Z,53.60
2023-01-15T01:29:46.582Z,53.50
2023-01-15T01:32:47.889Z,54.10
2023-01-15T01:35:49.557Z,53.90
2023-01-15T01:38:50.916Z,53.50
2023-01-15T01:41:52.171Z,53.60
2023-01-15T01:44:58.048Z,53.70
2023-01-15T01:48:00.738Z,53.50
2023-01-15T01:51:05.199Z,53.20
2023-01-15T01:54:09.108Z,53.60
2023-01-15T01:57:10.410Z,53.50
2023-01-15T02:00:14.433Z,53.50
2023-01-15T02:03:16.760Z,53.30
2023-01-15T02:06:18.465Z,53.30
2023-01-15T02:09:20.002Z,53.40
2023-01-15T02:12:24.545Z,53.30
2023-01-15T02:15:28.619Z,53.30
2023-01-15T02:18:33.458Z,53.20
2023-01-15T02:21:41.499Z,53.10
2023-01-15T02:24:52.195Z,53.80
2023-01-15T02:27:56.818Z,53.20
2023-01-15T02:31:02.433Z,53.30
2023-01-15T02:34:05.724Z,53.10
2023-01-15T02:37:09.538Z,53.10
2023-01-15T02:40:11.657Z,53.10
2023-01-15T02:43:14.829Z,53.30
2023-01-15T02:46:17.907Z,53.20
2023-01-15T02:49:20.747Z,53.10
2023-01-15T02:52:25.312Z,53.20
2023-01-15T02:55:28.219Z,53.00
2023-01-15T02:58:32.593Z,53.50
2023-01-15T03:01:39.718Z,53.20
2023-01-15T03:04:43.287Z,52.90
2023-01-15T03:07:47.226Z,53.10
2023-01-15T03:10:52.373Z,53.10
2023-01-15T03:13:59.049Z,53.10
2023-01-15T03:17:04.478Z,53.10
2023-01-15T03:20:07.115Z,53.00
2023-01-15T03:23:10.412Z,52.70
2023-01-15T03:26:12.929Z,52.90
2023-01-15T03:29:17.827Z,52.90
2023-01-15T03:32:19.523Z,53.10
2023-01-15T03:35:32.601Z,53.20
2023-01-15T03:38:35.378Z,52.90
2023-01-15T03:41:44.140Z,52.80
2023-01-15T03:44:50.721Z,52.60
2023-01-15T03:47:56.371Z,52.60
2023-01-15T03:51:02.269Z,52.80
2023-01-15T03:54:08.821Z,52.80
2023-01-15T03:57:14.177Z,53.30
2023-01-15T04:00:21.025Z,52.60
2023-01-15T04:03:27.265Z,52.70
2023-01-15T04:06:30.180Z,52.80
2023-01-15T04:09:36.510Z,52.60
2023-01-15T04:12:38.065Z,52.50
2023-01-15T04:15:43.985Z,52.60
2023-01-15T04:18:46.425Z,52.50
2023-01-15T04:21:48.287Z,52.30
2023-01-15T04:24:49.666Z,52.50
2023-01-15T04:27:52.879Z,52.60
2023-01-15T04:30:56.811Z,52.30
2023-01-15T04:33:58.192Z,52.50
2023-01-15T04:36:59.449Z,52.70
2023-01-15T04:40:00.669Z,52.50
2023-01-15T04:43:12.347Z,52.40
2023-01-15T04:46:14.302Z,52.40
2023-01-15T04:49:16.379Z,52.60
2023-01-15T04:52:17.605Z,52.40
2023-01-15T04:55:18.919Z,52.50
2023-01-15T04:58:20.127Z,52.50
2023-01-15T05:01:22.072Z,52.40
2023-01-15T05:04:23.494Z,52.40
2023-01-15T05:07:24.787Z,52.70
2023-01-15T05:10:26.006Z,52.50
2023-01-15T05:13:27.345Z,52.30
2023-01-15T05:16:29.922Z,52.20
2023-01-15T05:19:31.225Z,52.10
2023-01-15T05:22:34.195Z,52.10
2023-01-15T05:25:36.035Z,52.00
2023-01-15T05:28:37.339Z,52.10
2023-01-15T05:31:39.444Z,52.10
2023-01-15T05:34:40.864Z,52.10
2023-01-15T05:37:42.095Z,52.50
2023-01-15T05:40:43.359Z,52.10
2023-01-15T05:43:44.567Z,52.00
2023-01-15T05:46:47.075Z,52.10
2023-01-15T05:49:49.396Z,51.90
2023-01-15T05:52:50.646Z,52.00
2023-01-15T05:55:51.964Z,51.90
2023-01-15T05:58:53.309Z,52.00
2023-01-15T06:01:55.375Z,51.80
2023-01-15T06:04:56.836Z,51.80
2023-01-15T06:07:59.932Z,52.10
2023-01-15T06:11:02.371Z,51.90
2023-01-15T06:14:03.640Z,51.90
2023-01-15T06:17:05.767Z,51.90
2023-01-15T06:20:07.380Z,51.80
2023-01-15T06:23:08.916Z,51.70
2023-01-15T06:26:11.344Z,51.70
2023-01-15T06:29:16.724Z,51.70
2023-01-15T06:32:18.486Z,51.60
2023-01-15T06:35:19.844Z,51.80
2023-01-15T06:38:21.073Z,52.00
2023-01-15T06:41:37.978Z,51.90
2023-01-15T06:44:52.421Z,51.50
2023-01-15T06:47:54.479Z,51.50
2023-01-15T06:50:55.872Z,51.60
2023-01-15T06:53:57.219Z,51.50
2023-01-15T06:56:58.575Z,51.60
2023-01-15T07:00:00.011Z,51.60
2023-01-15T07:03:02.136Z,51.70
2023-01-15T07:06:07.456Z,51.70
2023-01-15T07:09:08.758Z,51.30
2023-01-15T07:12:10.081Z,51.20
2023-01-15T07:15:11.516Z,51.60
2023-01-15T07:18:13.426Z,51.40
2023-01-15T07:21:14.654Z,51.70
2023-01-15T07:24:17.519Z,51.40
2023-01-15T07:27:18.843Z,51.20
2023-01-15T07:30:20.089Z,51.30
2023-01-15T07:33:21.892Z,51.50
2023-01-15T07:36:23.290Z,51.20
2023-01-15T07:39:24.520Z,51.60
2023-01-15T07:42:40.457Z,51.20
2023-01-15T07:45:56.721Z,51.00
2023-01-15T07:49:12.421Z,51.00
2023-01-15T07:52:15.025Z,51.10
2023-01-15T07:55:16.286Z,51.00
2023-01-15T07:58:17.612Z,51.40
2023-01-15T08:01:18.950Z,50.90
2023-01-15T08:04:20.854Z,50.90
2023-01-15T08:07:22.172Z,51.00
2023-01-15T08:10:24.510Z,51.20
2023-01-15T08:13:40.549Z,50.80
2023-01-15T08:16:41.781Z,51.10
2023-01-15T08:19:43.625Z,50.90
2023-01-15T08:22:45.454Z,51.10
2023-01-15T08:25:46.683Z,50.60
2023-01-15T08:28:48.016Z,50.60
2023-01-15T08:31:49.375Z,50.60
2023-01-15T08:34:51.267Z,50.70
2023-01-15T08:37:52.532Z,50.60
2023-01-15T08:41:02.876Z,50.40
2023-01-15T08:44:04.592Z,50.40
2023-01-15T08:47:05.827Z,49.90
2023-01-15T08:50:08.824Z,50.40
2023-01-15T08:53:10.206Z,50.60
2023-01-15T08:56:12.082Z,50.30
2023-01-15T08:59:13.655Z,50.40
2023-01-15T09:02:15.117Z,49.90
2023-01-15T09:05:16.959Z,50.20
2023-01-15T09:08:20.275Z,50.10
2023-01-15T09:11:21.613Z,50.50
2023-01-15T09:14:59.774Z,50.20
2023-01-15T09:17:44.040Z,50.10
2023-01-15T09:20:45.980Z,50.00
2023-01-15T09:23:47.352Z,50.10
2023-01-15T09:26:52.317Z,49.90
2023-01-15T09:29:53.919Z,50.30
2023-01-15T09:32:55.266Z,50.10
2023-01-15T09:35:57.148Z,50.20
2023-01-15T09:38:59.585Z,50.10
2023-01-15T09:42:08.689Z,49.50
2023-01-15T09:45:14.322Z,49.80
2023-01-15T09:48:20.062Z,50.10
2023-01-15T09:51:28.329Z,49.50
2023-01-15T09:54:37.409Z,50.00
2023-01-15T09:57:39.675Z,49.90
2023-01-15T10:00:43.652Z,49.50
2023-01-15T10:03:46.981Z,49.50
2023-01-15T10:06:51.411Z,49.90
2023-01-15T10:09:56.157Z,49.60
2023-01-15T10:13:00.020Z,49.40
2023-01-15T10:16:01.694Z,49.50
2023-01-15T10:19:03.354Z,49.70
2023-01-15T10:22:06.967Z,49.40
2023-01-15T10:25:14.156Z,49.60
2023-01-15T10:28:18.701Z,49.30
2023-01-15T10:31:21.444Z,49.60
2023-01-15T10:34:32.173Z,49.30
2023-01-15T10:37:40.847Z,49.20
2023-01-15T10:40:48.470Z,49.60
2023-01-15T10:43:52.021Z,49.60
2023-01-15T10:46:58.222Z,49.20
2023-01-15T10:50:00.704Z,49.40
2023-01-15T10:53:06.559Z,49.20
2023-01-15T10:56:09.666Z,49.50
2023-01-15T10:59:14.680Z,49.00
2023-01-15T11:02:21.510Z,49.10
2023-01-15T11:05:22.911Z,49.00
2023-01-15T11:09:06.638Z,49.60
2023-01-15T11:12:02.511Z,49.30
2023-01-15T11:15:27.637Z,49.50
2023-01-15T11:18:42.492Z,49.00
2023-01-15T11:21:43.752Z,48.90
2023-01-15T11:24:46.865Z,49.10
2023-01-15T11:27:49.185Z,49.40
2023-01-15T11:30:53.115Z,49.00
2023-01-15T11:33:57.494Z,48.80
2023-01-15T11:37:03.125Z,49.00
2023-01-15T11:40:07.149Z,49.40
2023-01-15T11:43:32.490Z,48.90
2023-01-15T11:46:48.419Z,49.20
2023-01-15T11:50:02.569Z,49.00
2023-01-15T11:53:03.968Z,49.30
2023-01-15T11:56:08.618Z,49.00
2023-01-15T11:59:11.979Z,48.90
2023-01-15T12:02:17.393Z,49.00
2023-01-15T12:05:20.004Z,49.30
2023-01-15T12:08:26.143Z,49.00
2023-01-15T12:11:34.111Z,48.70
2023-01-15T12:14:40.657Z,48.90
2023-01-15T12:17:56.862Z,48.90
2023-01-15T12:21:01.904Z,48.90
2023-01-15T12:24:12.999Z,48.70
2023-01-15T12:27:22.221Z,48.80
2023-01-15T12:30:26.600Z,49.10
2023-01-15T12:33:35.045Z,48.60
2023-01-15T12:36:38.499Z,48.80
2023-01-15T12:39:45.076Z,48.90
2023-01-15T12:43:02.557Z,49.00
2023-01-15T12:46:04.531Z,49.00
2023-01-15T12:49:09.728Z,48.80
2023-01-15T12:52:13.480Z,48.70
2023-01-15T12:55:16.623Z,48.90
2023-01-15T12:58:25.527Z,48.60
2023-01-15T13:01:31.274Z,48.60
2023-01-15T13:04:38.866Z,48.60
2023-01-15T13:07:41.612Z,49.00
2023-01-15T13:10:43.710Z,48.50
2023-01-15T13:13:57.086Z,48.80
2023-01-15T13:17:01.127Z,48.70
2023-01-15T13:20:17.238Z,48.90
2023-01-15T13:23:26.107Z,48.40
2023-01-15T13:26:37.301Z,48.80
2023-01-15T13:29:43.538Z,48.40
2023-01-15T13:32:48.193Z,48.30
2023-01-15T13:35:51.384Z,48.60
2023-01-15T13:38:55.076Z,48.60
2023-01-15T13:42:11.468Z,48.50
2023-01-15T13:45:25.812Z,48.00
2023-01-15T13:48:29.801Z,48.30
2023-01-15T13:51:36.526Z,48.30
2023-01-15T13:54:40.650Z,48.30
2023-01-15T13:57:42.669Z,48.70
2023-01-15T14:00:45.345Z,48.40
2023-01-15T14:03:55.081Z,48.70
2023-01-15T14:06:56.318Z,46.10
2023-01-15T14:10:07.093Z,48.50
2023-01-15T14:13:20.805Z,48.30
2023-01-15T14:16:27.612Z,48.60
2023-01-15T14:19:34.624Z,48.20
2023-01-15T14:22:41.910Z,48.30
2023-01-15T14:25:49.483Z,48.30
2023-01-15T14:29:00.422Z,48.60
2023-01-15T14:32:07.320Z,48.20
2023-01-15T14:35:12.224Z,48.60
2023-01-15T14:38:15.035Z,48.10
2023-01-15T14:41:16.699Z,48.30
2023-01-15T14:44:25.424Z,48.20
2023-01-15T14:47:28.600Z,48.30
2023-01-15T14:50:32.900Z,48.20
2023-01-15T14:53:38.090Z,48.50
2023-01-15T14:56:42.765Z,48.70
2023-01-15T14:59:48.124Z,48.40
2023-01-15T15:02:50.334Z,48.10
2023-01-15T15:05:52.026Z,48.00
2023-01-15T15:08:54.257Z,48.20
2023-01-15T15:12:12.935Z,48.50
2023-01-15T15:15:16.844Z,48.00
2023-01-15T15:18:23.579Z,48.20
2023-01-15T15:21:26.544Z,48.10
2023-01-15T15:24:29.461Z,48.40
2023-01-15T15:27:30.712Z,48.10
2023-01-15T15:30:34.511Z,48.80
2023-01-15T15:33:37.085Z,48.10
2023-01-15T15:36:39.649Z,48.40
2023-01-15T15:39:44.897Z,48.20
2023-01-15T15:43:02.936Z,47.80
2023-01-15T15:46:19.030Z,48.20
2023-01-15T15:49:20.865Z,48.50
2023-01-15T15:52:23.222Z,48.20
2023-01-15T15:55:25.407Z,48.20
2023-01-15T15:58:29.897Z,48.20
2023-01-15T16:01:36.156Z,48.50
2023-01-15T16:04:43.253Z,48.10
2023-01-15T16:07:44.692Z,48.60
2023-01-15T16:10:47.239Z,48.10
2023-01-15T16:13:50.496Z,48.50
2023-01-15T16:16:51.743Z,48.20
2023-01-15T16:19:55.064Z,48.60
2023-01-15T16:22:57.742Z,48.30
2023-01-15T16:26:01.169Z,48.20
2023-01-15T16:29:03.776Z,48.10
2023-01-15T16:32:10.598Z,48.60
2023-01-15T16:35:17.188Z,48.20
2023-01-15T16:38:19.619Z,48.60
2023-01-15T16:41:25.894Z,48.40
2023-01-15T16:44:37.141Z,48.70
2023-01-15T16:47:38.846Z,48.10
2023-01-15T16:50:41.964Z,48.80
2023-01-15T16:53:43.186Z,48.40
2023-01-15T16:56:49.175Z,48.70
2023-01-15T16:59:55.088Z,48.40
2023-01-15T17:02:56.352Z,48.40
2023-01-15T17:05:59.649Z,48.30
2023-01-15T17:09:01.023Z,48.70
2023-01-15T17:12:04.040Z,48.30
2023-01-15T17:15:20.249Z,48.60
2023-01-15T17:18:25.117Z,48.20
2023-01-15T17:21:28.489Z,48.30
2023-01-15T17:24:29.765Z,48.50
2023-01-15T17:27:31.058Z,48.80
2023-01-15T17:30:32.536Z,48.20
2023-01-15T17:33:33.803Z,48.70
2023-01-15T17:36:35.691Z,48.40
2023-01-15T17:39:37.077Z,48.40
2023-01-15T17:42:38.376Z,48.10
2023-01-15T17:45:39.861Z,48.80
2023-01-15T17:48:41.112Z,48.50
2023-01-15T17:51:43.066Z,48.90
2023-01-15T17:54:59.098Z,48.40
2023-01-15T17:58:12.909Z,48.70
2023-01-15T18:01:30.741Z,48.20
2023-01-15T18:04:48.769Z,48.60
2023-01-15T18:07:51.316Z,48.30
2023-01-15T18:10:52.664Z,48.70
2023-01-15T18:13:55.191Z,48.40
2023-01-15T18:16:56.599Z,48.90
2023-01-15T18:19:57.923Z,48.20
2023-01-15T18:22:59.742Z,48.70
2023-01-15T18:26:02.374Z,48.30
2023-01-15T18:29:04.087Z,48.60
2023-01-15T18:32:05.542Z,48.30
2023-01-15T18:35:07.105Z,48.60
2023-01-15T18:38:08.863Z,48.30
2023-01-15T18:41:10.963Z,48.50
2023-01-15T18:44:22.905Z,48.30
2023-01-15T18:47:24.902Z,48.50
2023-01-15T18:50:26.232Z,48.20
2023-01-15T18:53:28.063Z,48.70
2023-01-15T18:56:42.928Z,48.50
2023-01-15T18:59:44.462Z,48.20
2023-01-15T19:02:45.698Z,48.10
2023-01-15T19:05:46.959Z,48.80
2023-01-15T19:08:48.779Z,48.50
2023-01-15T19:11:50.808Z,48.90
2023-01-15T19:15:02.909Z,48.40
2023-01-15T19:18:19.597Z,48.70
2023-01-15T19:21:21.297Z,48.40
2023-01-15T19:24:23.186Z,48.50
2023-01-15T19:27:24.429Z,48.20
2023-01-15T19:30:26.369Z,48.30
2023-01-15T19:33:28.059Z,48.40
2023-01-15T19:36:29.326Z,48.70
2023-01-15T19:39:31.223Z,48.50
2023-01-15T19:42:42.970Z,48.50
2023-01-15T19:45:59.398Z,48.80
2023-01-15T19:49:13.038Z,48.80
2023-01-15T19:52:29.068Z,48.40
2023-01-15T19:55:31.709Z,48.40
2023-01-15T19:58:33.561Z,48.50
2023-01-15T20:01:34.968Z,48.60
2023-01-15T20:04:36.233Z,48.50
2023-01-15T20:07:37.734Z,48.30
2023-01-15T20:10:40.564Z,48.10
2023-01-15T20:13:49.004Z,48.40
2023-01-15T20:16:50.232Z,48.00
2023-01-15T20:19:51.648Z,48.80
2023-01-15T20:22:55.208Z,48.60
2023-01-15T20:26:00.883Z,48.60
2023-01-15T20:29:02.129Z,48.30
2023-01-15T20:32:03.427Z,48.80
2023-01-15T20:35:05.833Z,48.70
2023-01-15T20:38:07.164Z,48.30
2023-01-15T20:41:22.990Z,48.40
2023-01-15T20:44:38.936Z,48.60
2023-01-15T20:47:52.987Z,48.40
2023-01-15T20:51:01.386Z,48.30
2023-01-15T20:54:02.935Z,48.30
2023-01-15T20:57:04.813Z,48.80
2023-01-15T21:00:07.903Z,48.60
2023-01-15T21:03:09.506Z,48.70
2023-01-15T21:06:10.824Z,48.60
2023-01-15T21:09:12.112Z,48.90
2023-01-15T21:12:13.937Z,48.80
2023-01-15T21:15:15.289Z,48.60
2023-01-15T21:18:16.568Z,48.10
2023-01-15T21:21:18.512Z,48.80
2023-01-15T21:24:19.843Z,48.70
2023-01-15T21:27:21.772Z,48.70
2023-01-15T21:30:24.899Z,48.70
2023-01-15T21:33:26.201Z,48.90
2023-01-15T21:36:27.452Z,48.70
2023-01-15T21:39:28.715Z,49.00
2023-01-15T21:42:42.988Z,48.90
2023-01-15T21:45:44.455Z,49.20
2023-01-15T21:48:45.827Z,48.90
2023-01-15T21:51:47.504Z,48.80
2023-01-15T21:54:49.322Z,48.70
2023-01-15T21:57:51.390Z,49.20
2023-01-15T22:00:52.893Z,48.80
2023-01-15T22:03:54.205Z,48.90
2023-01-15T22:06:55.913Z,48.50
2023-01-15T22:09:57.320Z,48.50
2023-01-15T22:12:59.174Z,49.00
2023-01-15T22:16:03.336Z,48.90
2023-01-15T22:19:04.549Z,49.00
2023-01-15T22:22:07.820Z,48.90
2023-01-15T22:25:12.796Z,49.00
2023-01-15T22:28:14.658Z,49.20
2023-01-15T22:31:16.994Z,49.10
2023-01-15T22:34:20.623Z,49.20
2023-01-15T22:37:21.947Z,49.10
2023-01-15T22:40:23.191Z,49.50
2023-01-15T22:43:24.958Z,49.30
2023-01-15T22:46:26.274Z,49.10
2023-01-15T22:49:27.554Z,49.30
2023-01-15T22:52:28.945Z,49.10
2023-01-15T22:55:30.282Z,49.00
2023-01-15T22:58:32.238Z,49.70
2023-01-15T23:01:33.630Z,49.20
2023-01-15T23:04:34.976Z,49.20
2023-01-15T23:07:36.984Z,49.20
2023-01-15T23:10:41.783Z,49.00
2023-01-15T23:13:43.667Z,49.30
2023-01-15T23:16:44.953Z,49.60
2023-01-15T23:19:46.189Z,49.40
2023-01-15T23:22:47.522Z,49.30
2023-01-15T23:25:49.302Z,49.40
2023-01-15T23:28:51.234Z,49.30
2023-01-15T23:31:52.468Z,49.50
2023-01-15T23:34:53.751Z,49.70
2023-01-15T23:37:55.099Z,49.40
2023-01-15T23:40:56.429Z,49.50
2023-01-15T23:44:12.903Z,49.30
2023-01-15T23:47:14.211Z,49.70
2023-01-15T23:50:15.487Z,49.60
2023-01-15T23:53:16.813Z,49.40
2023-01-15T23:56:18.042Z,49.60
2023-01-15T23:59:20.061Z,49.70
